Time;durP1;ratioP1;P1;durP2;ratioP2;P2;SDS_P1;SDS_P2;PMS_P1;PMS_P2;Temp;Humidity;BMP_temperature;BMP_pressure;BME280_temperature;BME280_humidity;BME280_pressure;Samples;Min_cycle;Max_cycle;Signal;HPM_P1;HPM_P2
2022/06/25 00:01:05;;;;;;;10.72;3.35;;;;;;;14.76;75.15;100645.06;1902067;75;21431;-57
2022/06/25 00:03:34;;;;;;;13.93;4.03;;;;;;;14.73;75.39;100645.23;1902103;75;21028;-58
2022/06/25 00:06:03;;;;;;;13.10;3.87;;;;;;;14.70;75.85;100651.58;1902064;75;21016;-58
2022/06/25 00:08:32;;;;;;;7.33;4.53;;;;;;;14.67;75.90;100663.19;1901929;75;21027;-57
2022/06/25 00:11:01;;;;;;;16.35;4.42;;;;;;;14.62;75.86;100657.28;1902065;75;21466;-57
2022/06/25 00:13:30;;;;;;;7.60;3.40;;;;;;;14.60;75.75;100657.00;1901928;75;21608;-57
2022/06/25 00:16:00;;;;;;;9.28;3.80;;;;;;;14.57;75.67;100658.05;1902067;75;21035;-58
2022/06/25 00:18:29;;;;;;;15.60;5.00;;;;;;;14.56;75.60;100658.94;1902055;75;21024;-58
2022/06/25 00:20:57;;;;;;;8.63;3.90;;;;;;;14.55;75.60;100669.17;1901871;75;21109;-58
2022/06/25 00:23:26;;;;;;;7.87;3.33;;;;;;;14.55;75.62;100666.53;1902014;75;21015;-58
2022/06/25 00:25:54;;;;;;;15.70;4.25;;;;;;;14.56;76.22;100666.89;1902059;75;21043;-58
2022/06/25 00:28:23;;;;;;;9.58;4.35;;;;;;;14.60;76.24;100666.28;1901977;75;21048;-57
2022/06/25 00:30:51;;;;;;;7.15;3.47;;;;;;;14.62;76.18;100667.89;1901991;75;21123;-58
2022/06/25 00:33:20;;;;;;;8.35;4.47;;;;;;;14.66;76.19;100667.24;1901822;75;21039;-58
2022/06/25 00:35:49;;;;;;;8.73;4.53;;;;;;;14.66;76.05;100663.27;1901959;75;21518;-57
2022/06/25 00:38:18;;;;;;;10.63;5.60;;;;;;;14.66;76.28;100671.22;1906071;75;21640;-57
2022/06/25 00:40:47;;;;;;;14.98;6.00;;;;;;;14.63;76.42;100672.73;1909228;75;21102;-57
2022/06/25 00:43:15;;;;;;;10.95;5.20;;;;;;;14.56;76.42;100662.91;1909215;75;21011;-57
2022/06/25 00:45:45;;;;;;;8.95;5.42;;;;;;;14.52;76.58;100668.02;1909091;75;21596;-58
2022/06/25 00:48:13;;;;;;;12.93;4.37;;;;;;;14.50;76.49;100665.92;1909284;75;21628;-57
2022/06/25 00:50:42;;;;;;;12.45;4.62;;;;;;;14.48;76.42;100659.86;1909160;75;21141;-57
2022/06/25 00:53:13;;;;;;;6.42;3.77;;;;;;;14.50;76.27;100663.28;1909117;75;21040;-57
2022/06/25 00:55:45;;;;;;;10.30;4.22;;;;;;;14.51;76.12;100667.61;1910509;74;21579;-55
2022/06/25 00:58:16;;;;;;;11.60;4.10;;;;;;;14.48;76.16;100667.81;1916240;74;21180;-57
2022/06/25 01:00:45;;;;;;;12.68;3.55;;;;;;;14.46;76.29;100665.72;1940630;74;21035;-57
2022/06/25 01:03:14;;;;;;;8.48;3.62;;;;;;;14.44;76.48;100672.42;1914829;74;21587;-57
2022/06/25 01:05:42;;;;;;;8.78;3.12;;;;;;;14.44;76.50;100666.25;1913849;74;21111;-57
2022/06/25 01:08:11;;;;;;;9.78;3.62;;;;;;;14.46;76.90;100663.07;1928294;74;21003;-57
2022/06/25 01:10:40;;;;;;;11.75;3.55;;;;;;;14.47;77.20;100660.79;1914585;73;21058;-58
2022/06/25 01:13:09;;;;;;;11.93;3.42;;;;;;;14.48;77.19;100660.70;1909002;75;21106;-56
2022/06/25 01:15:38;;;;;;;17.82;3.75;;;;;;;14.51;77.05;100662.31;1909147;75;21063;-56
2022/06/25 01:18:07;;;;;;;9.00;3.35;;;;;;;14.53;76.89;100667.05;1909081;75;21509;-56
2022/06/25 01:20:36;;;;;;;4.90;2.47;;;;;;;14.53;76.81;100662.23;1909346;75;21071;-57
2022/06/25 01:23:05;;;;;;;5.62;2.83;;;;;;;14.49;76.75;100664.20;1909280;75;21101;-54
2022/06/25 01:25:38;;;;;;;8.13;3.08;;;;;;;14.50;76.67;100663.28;1909008;75;21039;-56
2022/06/25 01:28:08;;;;;;;7.58;2.85;;;;;;;14.49;76.56;100662.88;1909211;75;21141;-56
2022/06/25 01:30:37;;;;;;;10.68;5.87;;;;;;;14.47;76.50;100668.73;1909309;75;21446;-55
2022/06/25 01:33:10;;;;;;;9.55;4.95;;;;;;;14.46;76.65;100676.32;1909152;75;21121;-55
2022/06/25 01:35:38;;;;;;;9.85;4.55;;;;;;;14.46;77.23;100667.05;1909257;75;21498;-56
2022/06/25 01:38:07;;;;;;;11.60;5.08;;;;;;;14.45;77.55;100669.30;1908992;75;21130;-56
2022/06/25 01:40:35;;;;;;;13.20;5.10;;;;;;;14.46;77.58;100667.05;1909217;75;21102;-56
2022/06/25 01:43:05;;;;;;;14.25;5.50;;;;;;;14.44;77.75;100666.25;1909223;75;21619;-56
2022/06/25 01:45:38;;;;;;;8.75;4.28;;;;;;;14.42;77.87;100674.76;1909259;75;21113;-56
2022/06/25 01:48:08;;;;;;;12.13;5.10;;;;;;;14.39;78.03;100667.84;1909269;75;21040;-56
2022/06/25 01:50:38;;;;;;;11.83;4.42;;;;;;;14.34;77.87;100670.38;1909189;75;21888;-55
2022/06/25 01:53:07;;;;;;;12.37;4.72;;;;;;;14.31;77.67;100665.23;1909255;75;21105;-55
2022/06/25 01:55:36;;;;;;;9.85;4.60;;;;;;;14.29;77.46;100662.22;1909097;75;21047;-55
2022/06/25 01:58:06;;;;;;;9.98;4.10;;;;;;;14.27;77.42;100665.43;1909170;75;21120;-55
2022/06/25 02:00:35;;;;;;;12.88;5.47;;;;;;;14.28;77.50;100666.27;1909358;75;21463;-55
2022/06/25 02:03:06;;;;;;;17.30;5.50;;;;;;;14.29;77.44;100668.84;1908522;75;21059;-55
2022/06/25 02:08:25;;;;;;;15.98;5.78;;;;;;;14.29;77.75;100663.55;1909097;75;21039;-55
2022/06/25 02:10:54;;;;;;;14.53;4.62;;;;;;;14.32;77.86;100665.64;1909181;75;21482;-55
2022/06/25 02:13:23;;;;;;;11.57;4.75;;;;;;;14.33;77.93;100663.35;1909129;75;21110;-56
2022/06/25 02:15:53;;;;;;;15.98;4.47;;;;;;;14.36;77.79;100660.55;1909215;75;21482;-55
2022/06/25 02:18:22;;;;;;;16.12;4.80;;;;;;;14.40;77.63;100657.63;1909245;75;21152;-55
2022/06/25 02:20:51;;;;;;;10.10;2.98;;;;;;;14.46;77.60;100672.34;1909139;75;21085;-56
2022/06/25 02:23:21;;;;;;;5.45;3.27;;;;;;;14.50;77.50;100669.90;1909129;74;21518;-55
2022/06/25 02:25:51;;;;;;;5.20;3.42;;;;;;;14.55;77.42;100674.92;1909147;75;21026;-55
2022/06/25 02:28:19;;;;;;;12.78;3.70;;;;;;;14.60;77.37;100669.77;1909131;75;21430;-55
2022/06/25 02:30:48;;;;;;;8.68;3.50;;;;;;;14.65;77.69;100678.32;1909238;75;21113;-55
2022/06/25 02:33:17;;;;;;;10.63;3.75;;;;;;;14.67;77.60;100665.84;1909243;75;21047;-55
2022/06/25 02:35:47;;;;;;;13.00;3.65;;;;;;;14.71;77.36;100663.86;1909110;75;21550;-55
2022/06/25 02:38:17;;;;;;;9.50;3.30;;;;;;;14.72;77.35;100660.73;1909146;75;21059;-56
2022/06/25 02:40:48;;;;;;;7.78;3.95;;;;;;;14.75;77.25;100655.27;1908284;75;21626;-56
2022/06/25 02:43:17;;;;;;;5.17;3.50;;;;;;;14.80;77.19;100658.52;1909310;75;21083;-56
2022/06/25 02:45:47;;;;;;;7.28;3.92;;;;;;;14.87;77.11;100659.87;1908060;75;21043;-56
2022/06/25 02:48:16;;;;;;;7.08;3.80;;;;;;;14.96;76.98;100654.51;1909098;75;21533;-57
2022/06/25 02:50:45;;;;;;;7.22;3.20;;;;;;;15.05;76.89;100659.27;1909060;75;21169;-57
2022/06/25 02:53:14;;;;;;;12.70;4.10;;;;;;;15.13;76.90;100650.85;1909143;75;21597;-55
2022/06/25 03:01:18;;;;;;;4.58;3.25;;;;;;;15.97;78.81;100656.34;1908631;75;21062;-57
2022/06/25 03:03:47;;;;;;;6.58;2.80;;;;;;;16.23;79.07;100650.30;1909179;75;21031;-56
2022/06/25 03:06:16;;;;;;;7.92;2.85;;;;;;;16.40;78.82;100662.04;1909230;75;21534;-55
2022/06/25 03:08:46;;;;;;;9.45;2.70;;;;;;;16.65;78.66;100655.95;1909400;75;21576;-56
2022/06/25 03:11:15;;;;;;;5.12;2.70;;;;;;;16.87;78.31;100658.08;1909347;75;21501;-55
2022/06/25 03:13:44;;;;;;;3.00;1.85;;;;;;;17.03;77.71;100661.06;1909265;75;21481;-56
2022/06/25 03:16:14;;;;;;;3.60;2.30;;;;;;;17.15;77.54;100661.08;1909252;75;21095;-55
2022/06/25 03:18:43;;;;;;;6.87;2.25;;;;;;;17.23;77.16;100657.89;1909277;75;21130;-55
2022/06/25 03:21:29;;;;;;;3.65;2.05;;;;;;;17.21;76.84;100661.59;1909184;75;21088;-55
2022/06/25 03:24:04;;;;;;;5.60;2.02;;;;;;;17.17;76.41;100659.62;1909049;75;21141;-56
2022/06/25 03:26:33;;;;;;;2.85;1.80;;;;;;;17.20;76.32;100656.77;1909220;75;21141;-56
2022/06/25 03:29:03;;;;;;;6.47;1.72;;;;;;;17.23;76.03;100657.89;1909241;75;21141;-57
2022/06/25 03:31:32;;;;;;;5.78;2.22;;;;;;;17.25;75.75;100655.98;1909189;75;21040;-56
2022/06/25 03:34:02;;;;;;;3.87;1.87;;;;;;;17.24;75.48;100659.58;1908824;75;21579;-55
2022/06/25 03:36:42;;;;;;;8.10;1.98;;;;;;;17.23;75.23;100654.39;1906353;75;21063;-57
2022/06/25 03:39:10;;;;;;;5.75;1.67;;;;;;;17.19;75.10;100669.71;1909114;75;21110;-56
2022/06/25 03:41:39;;;;;;;5.42;1.82;;;;;;;17.18;75.14;100678.64;1909527;75;21572;-53
2022/06/25 03:44:25;;;;;;;4.30;1.98;;;;;;;17.21;75.09;100672.23;1909125;75;21067;-53
2022/06/25 03:46:55;;;;;;;5.33;2.02;;;;;;;17.25;74.96;100674.61;1907813;75;21071;-53
2022/06/25 03:49:25;;;;;;;4.83;2.85;;;;;;;17.30;74.87;100676.48;1909048;75;21182;-53
2022/06/25 03:52:02;;;;;;;10.03;2.45;;;;;;;17.36;74.76;100681.86;1909069;75;21071;-52
2022/06/25 03:54:31;;;;;;;5.33;2.33;;;;;;;17.42;74.72;100683.25;1909383;75;21470;-56
2022/06/25 03:56:59;;;;;;;5.58;2.12;;;;;;;17.49;74.84;100685.86;1909138;75;21087;-55
2022/06/25 03:59:30;;;;;;;5.78;2.50;;;;;;;17.64;75.10;100683.45;1906537;75;21039;-58
2022/06/25 04:02:00;;;;;;;5.33;2.42;;;;;;;17.82;75.34;100683.15;1908638;75;21130;-56
2022/06/25 04:04:30;;;;;;;6.33;2.33;;;;;;;18.09;75.48;100679.02;1907081;75;21211;-56
2022/06/25 04:06:59;;;;;;;7.37;2.40;;;;;;;18.34;75.42;100682.11;1909121;75;21136;-56
2022/06/25 04:09:28;;;;;;;2.70;1.95;;;;;;;18.52;74.98;100681.25;1909146;75;21059;-56
2022/06/25 04:11:57;;;;;;;4.33;2.05;;;;;;;18.71;74.46;100683.41;1909233;75;21031;-56
2022/06/25 04:14:26;;;;;;;4.30;2.10;;;;;;;18.98;74.16;100686.33;1909035;75;21075;-56
2022/06/25 04:16:55;;;;;;;7.10;2.27;;;;;;;19.28;73.94;100693.35;1909128;75;21031;-56
2022/06/25 04:19:25;;;;;;;3.65;2.00;;;;;;;19.56;73.39;100695.72;1909124;75;21071;-56
2022/06/25 04:21:54;;;;;;;4.12;1.55;;;;;;;19.83;72.80;100688.75;1909175;75;21035;-56
2022/06/25 04:24:23;;;;;;;2.83;1.10;;;;;;;20.15;72.49;100684.83;1909197;75;21517;-56
2022/06/25 04:26:52;;;;;;;5.78;1.57;;;;;;;20.49;71.72;100682.58;1909064;75;21071;-56
2022/06/25 04:29:20;;;;;;;4.35;1.30;;;;;;;20.77;71.35;100688.73;1909123;75;21497;-56
2022/06/25 04:31:56;;;;;;;3.50;1.17;;;;;;;21.10;70.70;100682.89;1907003;75;21486;-56
2022/06/25 04:34:29;;;;;;;6.92;1.47;;;;;;;21.55;70.46;100675.94;1901718;75;21140;-56
2022/06/25 04:36:58;;;;;;;2.98;1.32;;;;;;;22.01;70.02;100658.17;1909188;75;21114;-55
2022/06/25 04:39:28;;;;;;;2.60;1.22;;;;;;;22.36;69.25;100657.22;1909026;75;21131;-56
2022/06/25 04:41:57;;;;;;;4.92;1.32;;;;;;;22.66;68.35;100662.12;1909192;75;21098;-56
2022/06/25 04:44:27;;;;;;;4.87;1.27;;;;;;;22.93;67.56;100664.61;1908974;75;21140;-57
2022/06/25 04:46:57;;;;;;;3.55;0.95;;;;;;;23.11;66.15;100661.59;1909116;75;21161;-56
2022/06/25 04:49:28;;;;;;;1.00;0.90;;;;;;;23.11;64.73;100671.47;1906960;75;21140;-56
2022/06/25 04:51:58;;;;;;;3.37;1.05;;;;;;;23.20;64.12;100669.77;1908876;75;21226;-56
2022/06/25 04:54:27;;;;;;;2.35;1.00;;;;;;;23.31;64.07;100674.50;1909262;75;21162;-56
2022/06/25 04:57:00;;;;;;;5.17;1.35;;;;;;;23.48;63.48;100674.25;1907240;75;21166;-56
2022/06/25 04:59:29;;;;;;;1.75;1.05;;;;;;;23.61;62.27;100678.44;1909210;75;21525;-55
2022/06/25 05:02:03;;;;;;;1.55;0.95;;;;;;;23.71;62.02;100672.55;1907796;75;21165;-56
2022/06/25 05:04:45;;;;;;;1.07;0.90;;;;;;;23.58;60.84;100684.13;1908461;75;21065;-56
2022/06/25 05:07:14;;;;;;;6.55;1.30;;;;;;;23.39;60.94;100685.03;1909142;75;21109;-56
2022/06/25 05:09:42;;;;;;;2.47;0.80;;;;;;;23.01;60.97;100684.04;1909158;75;21020;-56
2022/06/25 05:13:11;;;;;;;2.80;1.40;;;;;;;22.45;61.13;100677.52;1909265;75;21031;-55
2022/06/25 05:14:41;;;;;;;1.82;1.05;;;;;;;22.10;61.60;100676.12;1903989;75;21036;-56
2022/06/25 05:17:10;;;;;;;1.70;1.07;;;;;;;21.89;62.08;100675.70;1909267;75;21031;-55
2022/06/25 05:19:39;;;;;;;4.35;1.10;;;;;;;21.83;62.27;100674.87;1909130;75;21059;-55
2022/06/25 05:22:08;;;;;;;1.82;1.05;;;;;;;21.85;62.34;100672.91;1909102;75;21509;-54
2022/06/25 05:24:37;;;;;;;2.77;1.20;;;;;;;21.76;62.22;100665.67;1909165;75;21016;-54
2022/06/25 05:27:06;;;;;;;3.17;1.65;;;;;;;21.71;62.27;100661.23;1908930;75;21110;-55
2022/06/25 05:29:36;;;;;;;2.77;1.05;;;;;;;21.74;62.18;100656.42;1909179;75;21109;-56
2022/06/25 05:32:06;;;;;;;1.30;1.12;;;;;;;22.06;62.16;100658.58;1909029;75;21097;-55
2022/06/25 05:34:35;;;;;;;7.90;2.50;;;;;;;22.36;61.63;100650.52;1909132;75;21055;-55
2022/06/25 05:37:04;;;;;;;2.35;1.40;;;;;;;22.32;60.87;100659.83;1909181;75;21040;-55
2022/06/25 05:39:32;;;;;;;7.72;1.57;;;;;;;22.44;60.39;100657.86;1909212;75;21109;-55
2022/06/25 05:42:01;;;;;;;2.80;1.12;;;;;;;22.81;60.64;100653.66;1908851;75;21162;-55
2022/06/25 05:44:29;;;;;;;43.80;17.00;;;;;;;23.53;59.75;100659.02;1909094;75;21117;-55
2022/06/25 05:46:58;;;;;;;3.72;1.60;;;;;;;23.98;57.62;100658.83;1909219;74;21016;-55
2022/06/25 05:49:26;;;;;;;2.67;1.30;;;;;;;24.06;56.97;100665.64;1909121;75;21066;-55
2022/06/25 05:51:55;;;;;;;6.28;1.60;;;;;;;24.52;56.82;100665.66;1909157;75;21027;-55
2022/06/25 05:54:24;;;;;;;10.25;3.22;;;;;;;24.51;56.28;100666.64;1909083;75;21008;-55
2022/06/25 05:56:52;;;;;;;5.53;2.52;;;;;;;23.99;55.87;100672.60;1909172;75;21028;-55
2022/06/25 05:59:21;;;;;;;5.53;0.90;;;;;;;23.45;55.89;100677.22;1909131;75;21043;-55
2022/06/25 06:01:50;;;;;;;4.37;1.20;;;;;;;22.89;56.69;100668.58;1909114;75;21113;-55
2022/06/25 06:04:19;;;;;;;5.28;1.12;;;;;;;22.53;57.54;100672.28;1909074;75;21048;-55
2022/06/25 06:06:47;;;;;;;1.17;1.07;;;;;;;22.52;58.22;100674.13;1909011;75;21161;-56
2022/06/25 06:09:16;;;;;;;1.47;0.90;;;;;;;22.59;57.81;100678.42;1909036;75;21087;-55
2022/06/25 06:11:45;;;;;;;5.15;1.55;;;;;;;22.74;57.80;100673.02;1909086;75;21184;-55
2022/06/25 06:14:14;;;;;;;3.75;1.10;;;;;;;23.15;57.46;100675.59;1909228;75;21494;-56
2022/06/25 06:16:43;;;;;;;3.85;0.90;;;;;;;23.70;56.40;100681.63;1909179;75;21015;-56
2022/06/25 06:19:11;;;;;;;4.58;0.80;;;;;;;24.20;55.27;100677.25;1909056;75;21015;-56
2022/06/25 06:21:40;;;;;;;1.40;0.90;;;;;;;24.59;53.97;100682.41;1909157;75;21086;-56
2022/06/25 06:24:08;;;;;;;0.75;0.60;;;;;;;24.53;52.10;100680.34;1909196;75;21042;-56
2022/06/25 06:26:38;;;;;;;2.12;0.75;;;;;;;24.34;52.21;100684.45;1909001;75;21086;-55
2022/06/25 06:29:06;;;;;;;1.87;0.90;;;;;;;24.18;52.33;100690.00;1909059;75;21509;-55
2022/06/25 06:31:35;;;;;;;2.37;1.25;;;;;;;24.13;51.91;100686.91;1909085;75;21015;-56
2022/06/25 06:34:04;;;;;;;1.17;0.80;;;;;;;24.36;51.60;100692.71;1909148;75;21113;-56
2022/06/25 06:36:32;;;;;;;1.15;0.90;;;;;;;24.11;51.98;100692.94;1908997;75;21109;-56
2022/06/25 06:39:38;;;;;;;2.42;1.30;;;;;;;23.64;52.08;100688.91;1909034;75;21549;-56
2022/06/25 06:42:08;;;;;;;0.85;0.75;;;;;;;23.29;52.90;100679.65;1821162;79;21125;-56
2022/06/25 06:44:38;;;;;;;1.22;0.90;;;;;;;23.05;53.64;100689.50;1821403;77;21117;-57
2022/06/25 06:47:06;;;;;;;1.90;0.95;;;;;;;23.03;54.14;100691.45;1821239;79;21066;-57
2022/06/25 06:49:35;;;;;;;1.65;1.10;;;;;;;22.75;54.34;100689.46;1821304;79;21191;-57
2022/06/25 06:52:04;;;;;;;2.15;0.90;;;;;;;22.58;54.56;100689.33;1821305;79;21073;-56
2022/06/25 06:54:33;;;;;;;0.80;0.60;;;;;;;22.32;54.59;100701.41;1821326;78;21062;-56
2022/06/25 06:57:02;;;;;;;2.42;0.85;;;;;;;22.13;54.95;100692.79;1821219;78;21147;-56
2022/06/25 06:59:30;;;;;;;2.22;0.93;;;;;;;22.11;55.20;100700.59;1822627;77;21019;-58
2022/06/25 07:01:59;;;;;;;1.90;1.00;;;;;;;22.18;55.50;100699.91;1857575;77;21059;-53
2022/06/25 07:04:27;;;;;;;5.65;1.27;;;;;;;22.31;55.52;100702.38;1857768;77;21207;-59
2022/06/25 07:06:56;;;;;;;1.35;0.80;;;;;;;22.50;55.54;100703.41;1851656;77;21011;-57
2022/06/25 07:09:25;;;;;;;5.15;1.17;;;;;;;22.62;55.49;100703.66;1851651;77;21201;-59
2022/06/25 07:11:54;;;;;;;1.62;1.00;;;;;;;22.84;55.55;100696.34;1851627;77;21528;-57
2022/06/25 07:14:23;;;;;;;2.77;0.90;;;;;;;23.18;55.16;100701.30;1851703;77;21147;-54
2022/06/25 07:16:51;;;;;;;3.17;1.10;;;;;;;23.53;55.05;100694.45;1848051;77;21046;-54
2022/06/25 07:19:20;;;;;;;1.25;1.15;;;;;;;23.99;54.49;100688.23;1817210;79;21068;-53
2022/06/25 07:21:49;;;;;;;2.75;1.00;;;;;;;24.55;54.02;100678.34;1817009;79;21083;-56
2022/06/25 07:24:17;;;;;;;4.42;1.60;;;;;;;25.18;52.91;100677.89;1817242;79;21076;-57
2022/06/25 07:26:46;;;;;;;0.90;0.68;;;;;;;25.61;51.52;100679.72;1817253;79;21154;-57
2022/06/25 07:29:15;;;;;;;2.15;1.05;;;;;;;25.57;50.94;100679.70;1817259;79;21124;-57
2022/06/25 07:31:44;;;;;;;2.20;1.10;;;;;;;25.95;49.27;100677.58;1820447;77;21062;-54
2022/06/25 07:34:12;;;;;;;1.50;1.00;;;;;;;26.18;48.28;100670.24;1857718;77;21123;-57
2022/06/25 07:36:41;;;;;;;1.30;0.90;;;;;;;26.57;47.74;100661.05;1857631;77;21146;-57
2022/06/25 07:39:09;;;;;;;4.05;0.80;;;;;;;26.91;46.82;100670.92;1851640;77;21135;-56
2022/06/25 07:41:38;;;;;;;2.37;1.20;;;;;;;27.04;45.58;100659.61;1865275;76;21157;-53
2022/06/25 07:44:07;;;;;;;1.62;1.02;;;;;;;27.15;44.87;100678.70;1874106;76;21542;-56
2022/06/25 07:46:35;;;;;;;1.37;0.70;;;;;;;27.36;45.33;100657.91;1874284;76;21098;-56
2022/06/25 07:49:04;;;;;;;2.37;0.80;;;;;;;27.52;43.10;100661.11;1870512;76;21106;-57
2022/06/25 07:54:21;;;;;;;0.85;0.75;;;;;;;27.08;42.09;100654.72;1802924;79;21623;-55
2022/06/25 07:56:50;;;;;;;1.45;0.90;;;;;;;27.47;42.78;100656.72;1803657;79;21051;-56
2022/06/25 07:59:18;;;;;;;3.67;1.10;;;;;;;27.95;42.40;100645.94;1815149;77;21055;-57
2022/06/25 08:01:47;;;;;;;3.17;0.90;;;;;;;28.35;42.14;100640.83;1838664;77;21047;-56
2022/06/25 08:04:16;;;;;;;1.95;1.30;;;;;;;28.56;41.08;100644.78;1838808;77;21136;-56
2022/06/25 08:06:46;;;;;;;1.92;0.95;;;;;;;28.59;40.59;100653.87;1838757;78;21066;-55
2022/06/25 08:09:15;;;;;;;2.62;1.42;;;;;;;28.46;40.04;100658.53;1838880;78;21051;-56
2022/06/25 08:11:43;;;;;;;3.80;0.82;;;;;;;27.69;40.20;100649.73;1838721;78;21047;-57
2022/06/25 08:14:12;;;;;;;2.30;1.12;;;;;;;26.89;41.61;100654.05;1838650;78;21031;-56
2022/06/25 08:16:41;;;;;;;3.20;1.50;;;;;;;26.31;42.46;100649.02;1838679;78;21094;-56
2022/06/25 08:19:10;;;;;;;4.05;1.32;;;;;;;26.09;43.03;100654.52;1838708;78;21039;-50
2022/06/25 08:21:38;;;;;;;2.22;1.10;;;;;;;26.13;43.41;100659.09;1838729;78;21144;-52
2022/06/25 08:24:07;;;;;;;3.30;1.10;;;;;;;25.71;43.79;100655.84;1838698;78;21063;-57
2022/06/25 08:26:35;;;;;;;2.05;1.15;;;;;;;25.34;44.41;100655.14;1838512;77;21110;-58
2022/06/25 08:29:04;;;;;;;1.02;0.78;;;;;;;25.14;44.90;100650.89;1838690;78;21125;-53
2022/06/25 08:31:33;;;;;;;1.05;0.68;;;;;;;25.15;44.05;100656.12;1838635;78;21050;-56
2022/06/25 08:34:01;;;;;;;1.30;1.10;;;;;;;25.81;43.65;100646.63;1838732;78;21067;-56
2022/06/25 08:36:30;;;;;;;1.82;0.80;;;;;;;26.27;43.44;100648.19;1838616;77;21063;-55
2022/06/25 08:38:59;;;;;;;1.80;1.00;;;;;;;26.92;41.52;100638.83;1838586;78;21145;-55
2022/06/25 08:41:28;;;;;;;2.30;1.50;;;;;;;27.38;40.42;100647.77;1838417;77;21052;-54
2022/06/25 08:43:57;;;;;;;0.78;0.78;;;;;;;27.80;40.56;100638.52;1838600;77;21027;-57
2022/06/25 08:46:26;;;;;;;2.08;0.95;;;;;;;28.15;40.39;100648.55;1838649;78;21493;-57
2022/06/25 08:48:56;;;;;;;1.27;0.50;;;;;;;27.40;40.61;100635.44;1838699;78;21079;-56
2022/06/25 08:51:29;;;;;;;1.20;0.98;;;;;;;27.59;40.94;100634.19;1838536;78;21094;-56
2022/06/25 08:53:58;;;;;;;;;;;;;;;27.92;40.42;100626.83;1842167;76;21142;-59
2022/06/25 08:56:28;;;;;;;1.20;0.80;;;;;;;27.84;40.23;100635.80;1844598;76;20219;-59
2022/06/25 08:58:57;;;;;;;0.82;0.82;;;;;;;27.51;39.24;100625.60;1840096;76;21105;-59
2022/06/25 09:01:25;;;;;;;1.17;0.60;;;;;;;27.52;38.92;100632.71;1843785;76;21160;-57
2022/06/25 09:03:54;;;;;;;0.50;0.50;;;;;;;27.78;38.70;100623.47;1838486;78;21125;-60
2022/06/25 09:06:23;;;;;;;0.62;0.60;;;;;;;27.65;38.28;100633.00;1838436;78;21090;-61
2022/06/25 09:09:12;;;;;;;2.67;0.80;;;;;;;27.62;38.08;100638.75;1838407;77;21063;-59
2022/06/25 09:12:08;;;;;;;0.88;0.65;;;;;;;27.92;37.51;100628.18;1812526;79;21132;-60
2022/06/25 09:14:38;;;;;;;3.52;0.88;;;;;;;28.03;35.80;100623.72;1812425;79;21062;-60
2022/06/25 09:17:13;;;;;;;1.20;0.85;;;;;;;28.35;36.30;100623.22;1812352;79;21505;-60
2022/06/25 09:19:44;;;;;;;1.80;1.02;;;;;;;28.63;36.28;100622.20;1812364;78;21168;-63
2022/06/25 09:22:15;;;;;;;0.70;0.70;;;;;;;28.97;36.02;100610.58;1812577;79;21082;-63
2022/06/25 09:24:53;;;;;;;7.55;2.17;;;;;;;28.74;35.72;100616.87;1812497;78;21058;-62
2022/06/25 09:27:36;;;;;;;1.20;0.93;;;;;;;28.94;36.40;100612.28;1812574;79;21050;-60
2022/06/25 09:30:16;;;;;;;1.90;0.70;;;;;;;29.22;36.30;100641.04;1809116;78;21066;-60
2022/06/25 09:32:51;;;;;;;1.30;1.05;;;;;;;29.00;36.33;100605.63;1812615;79;21760;-60
2022/06/25 09:35:41;;;;;;;0.78;0.78;;;;;;;28.73;36.75;100612.47;1812477;79;21066;-56
2022/06/25 09:38:14;;;;;;;1.62;1.05;;;;;;;28.55;37.12;100620.06;1812532;79;21062;-60
2022/06/25 09:40:48;;;;;;;3.75;1.22;;;;;;;28.43;37.38;100614.20;1812796;79;21116;-59
2022/06/25 09:43:22;;;;;;;2.40;1.10;;;;;;;28.50;37.75;100617.88;1811217;78;21086;-58
2022/06/25 09:45:53;;;;;;;1.12;0.75;;;;;;;28.62;37.95;100616.95;1812471;79;21265;-58
2022/06/25 09:48:24;;;;;;;2.25;0.90;;;;;;;28.30;38.05;100620.20;1812700;79;21064;-58
2022/06/25 09:51:15;;;;;;;3.22;1.07;;;;;;;27.70;38.62;100618.45;1812603;79;21568;-58
2022/06/25 09:54:02;;;;;;;5.25;1.37;;;;;;;27.78;39.19;100609.94;1812692;79;21567;-58
2022/06/25 09:56:33;;;;;;;4.70;1.42;;;;;;;27.97;39.38;100610.91;1812786;79;21062;-58
2022/06/25 09:59:02;;;;;;;5.20;1.25;;;;;;;27.82;39.49;100611.30;1812560;78;21071;-58
2022/06/25 10:01:33;;;;;;;4.40;0.93;;;;;;;27.60;39.50;100613.74;1812636;79;21078;-58
2022/06/25 10:04:04;;;;;;;2.00;1.07;;;;;;;27.33;39.78;100613.16;1836349;78;21153;-58
2022/06/25 10:06:35;;;;;;;2.33;0.90;;;;;;;27.09;40.21;100611.28;1842875;78;21027;-58
2022/06/25 10:09:08;;;;;;;1.25;0.70;;;;;;;26.85;39.96;100618.91;1842194;76;21105;-58
2022/06/25 10:11:37;;;;;;;3.10;0.80;;;;;;;26.49;39.97;100617.85;1842796;78;21086;-58
2022/06/25 10:14:06;;;;;;;0.78;0.78;;;;;;;26.30;40.16;100620.84;1842672;78;21042;-58
2022/06/25 10:16:35;;;;;;;3.70;1.00;;;;;;;26.18;40.10;100617.11;1842951;78;21134;-58
2022/06/25 10:19:05;;;;;;;1.70;0.70;;;;;;;26.10;39.96;100629.24;1842482;78;21104;-59
2022/06/25 10:21:34;;;;;;;1.40;1.00;;;;;;;26.06;39.96;100625.67;1842698;78;21079;-58
2022/06/25 10:24:06;;;;;;;1.37;0.75;;;;;;;26.17;40.21;100627.58;1842694;78;21560;-58
2022/06/25 10:26:36;;;;;;;1.70;1.10;;;;;;;26.25;39.98;100620.52;1842709;78;21059;-58
2022/06/25 10:29:24;;;;;;;2.47;1.00;;;;;;;26.22;39.82;100616.80;1842799;78;21051;-58
2022/06/25 10:32:14;;;;;;;3.95;1.02;;;;;;;26.14;39.81;100618.45;1842862;78;21047;-57
2022/06/25 10:34:56;;;;;;;2.75;0.78;;;;;;;26.02;39.70;100615.71;1842229;78;21043;-60
2022/06/25 10:37:26;;;;;;;1.37;0.95;;;;;;;25.94;40.06;100618.39;1843017;78;21109;-59
2022/06/25 10:39:58;;;;;;;3.15;1.12;;;;;;;25.93;40.22;100620.73;1842522;78;21050;-60
2022/06/25 10:45:18;;;;;;;1.35;1.10;;;;;;;26.19;40.29;100605.80;1852232;77;21496;-60
2022/06/25 10:47:53;;;;;;;2.12;1.12;;;;;;;26.42;40.45;100608.73;1852128;77;21098;-60
2022/06/25 10:50:27;;;;;;;3.00;1.45;;;;;;;26.66;40.54;100607.10;1851980;77;21042;-60
2022/06/25 10:53:10;;;;;;;5.10;1.00;;;;;;;26.68;40.68;100600.51;1852080;77;21532;-57
2022/06/25 10:55:42;;;;;;;;;;;;;;;26.79;40.75;100593.93;1854865;77;21133;-62
2022/06/25 10:58:21;;;;;;;2.17;1.12;;;;;;;26.74;41.22;100597.64;1851431;77;20150;-57
2022/06/25 11:00:53;;;;;;;1.57;1.30;;;;;;;26.61;41.51;100601.36;1851939;77;21136;-58
2022/06/25 11:03:36;;;;;;;85.80;39.38;;;;;;;26.39;41.97;100609.05;1852348;77;21512;-58
2022/06/25 11:06:32;;;;;;;2.37;1.30;;;;;;;26.30;42.77;100614.09;1852222;77;21133;-58
2022/06/25 11:08:57;;;;;;;2.75;1.05;;;;;;;26.13;42.98;100614.56;1850698;77;21441;-58
2022/06/25 11:11:29;;;;;;;1.00;0.90;;;;;;;26.09;42.85;100606.47;1851116;77;21036;-58
2022/06/25 11:13:59;;;;;;;1.42;1.00;;;;;;;26.24;42.62;100602.63;1852192;77;21113;-58
2022/06/25 11:16:28;;;;;;;0.70;0.60;;;;;;;26.19;41.71;100605.32;1852233;77;21128;-58
2022/06/25 11:19:00;;;;;;;1.62;1.07;;;;;;;25.93;41.23;100603.20;1852099;77;21086;-58
2022/06/25 11:21:40;;;;;;;1.92;1.10;;;;;;;25.72;42.31;100604.96;1851994;77;21144;-59
2022/06/25 11:24:14;;;;;;;6.58;1.35;;;;;;;25.58;42.94;100605.05;1852221;77;21078;-57
2022/06/25 11:29:35;;;;;;;2.62;1.27;;;;;;;25.69;43.53;100599.37;1852152;77;21035;-58
2022/06/25 11:32:04;;;;;;;2.12;0.68;;;;;;;25.82;43.34;100601.61;1852085;77;21061;-58
2022/06/25 11:34:34;;;;;;;1.30;0.85;;;;;;;25.87;42.97;100595.75;1852194;77;21039;-58
2022/06/25 11:37:11;;;;;;;3.45;1.10;;;;;;;25.93;42.65;100603.20;1852310;77;21535;-57
2022/06/25 11:39:41;;;;;;;1.75;0.95;;;;;;;25.95;42.19;100592.61;1852269;77;21046;-57
2022/06/25 11:42:11;;;;;;;5.10;1.00;;;;;;;25.95;41.64;100592.61;1852290;77;21140;-58
2022/06/25 11:44:51;;;;;;;5.75;2.30;;;;;;;25.96;41.68;100605.59;1846005;77;21532;-58
2022/06/25 11:47:26;;;;;;;0.75;0.60;;;;;;;25.98;41.62;100600.87;1842869;78;21496;-58
2022/06/25 11:49:55;;;;;;;1.05;0.42;;;;;;;25.95;41.88;100603.88;1842793;78;21046;-58
2022/06/25 11:52:25;;;;;;;0.95;0.70;;;;;;;25.87;42.54;100601.14;1842890;78;21046;-57
2022/06/25 11:54:54;;;;;;;4.37;1.70;;;;;;;25.82;42.71;100607.00;1842662;78;21145;-58
2022/06/25 11:57:26;;;;;;;1.22;0.47;;;;;;;25.87;42.98;100608.72;1842824;78;21102;-57